Share

Amherst, NE

Regency (KNEKEARN3) Elev 2221 ft | 40.72 °N, 99.08 °W | Change Station

Current weather conditions updated 2 seconds ago

Clear
Clear
41.7 °F
Feels Like 39 °F
N
4.7
Wind Variable Wind from South
Gusts 6.9 mph
Sunrise 6:54 AM
Sunset 8:18 PM
Moon Waning Gibbous

Today is forecast to be nearly the same temperature as yesterday.

Pressure 30.29 in
Visibility 10.0 miles
Clouds Clear
Windchill 39 °F
Dew Point 30 °F
Humidity 64%
Rainfall 0.00 in
Snow Depth Not available.
UV 10 out of 16
Pollen 9.30 out of 12
Air Quality Not available.
Flu Activity Sporadic
METAR KEAR 171815Z AUTO 18003KT 10SM CLR 06/M03 A3029 RMK AO1

More Conditions Fewer Conditions

Pressure 30.29 in
Visibility 10.0 miles
Clouds Clear
Windchill 39 °F
Dew Point 30 °F
Humidity 64%
Rainfall 0.00 in
Snow Depth Not available.
UV 10 out of 16
Pollen 9.30 out of 12
Air Quality Not available.
Flu Activity Sporadic
METAR KEAR 171815Z AUTO 18003KT 10SM CLR 06/M03 A3029 RMK AO1

More Conditions Fewer Conditions

10-Day Forecast

Almanac

Astronomy

Apr. 17, 2014 Rise Set
Actual Time 6:54 AM CDT 8:18 PM CDT
Civil Twilight 6:26 AM CDT 8:47 PM CDT
Nautical Twilight 5:52 AM CDT 9:21 PM CDT
Astronomical Twilight 5:15 AM CDT 9:58 PM CDT
Moon 11:07 PM CDT 8:27 AM CDT
Length of Visible Light 14h 21m
Length of Day
13h 23m
Tomorrow will be 2m 33s longer.
Waning Gibbous, 93% of the Moon is Illuminated
Today
Waning Gibbous
Apr 22
Last Quarter
Apr 29
New
May 6
First Quarter
May 14
Full

Today's Extremes

State Highs State Lows

Community

  • New Day
    New Day
  • Lake Michigan Sunrise
    Lake Michigan Sunrise
  • sunset from izmir, narlıdere
    sunset from izmir, narlıdere
  • oregon cherry
    oregon cherry
  • Sunset over the Bay
    Sunset over the Bay

WunderPhotos

Upload Photos

1,702,089 photos uploaded!

Nearby

Snow Depth

Station Depth Elevation
No new snow has been reported.

Coastal Water Temperatures

Place Temperature
No Stations Reporting

Earthquake Activity

City Distance Mag. Time & Date
No recent earthquake activity has been reported nearby.
Minimum magnitude displayed is 2.5.

Nearby Weather Stations

Station Location Temp. Windchill Dew Point Humidity Wind Precip. Elev Updated Type
MesoWest ODESS1 , Odessa, NE 35 °F 35 °F - - North  at  - 0.00 in / hr 2215 ft 12:00 PM CDT MADIS
Regency, Kearney, NE 41.7 °F 39 °F 30 °F 64% South  at  4.7 mph 0.00 in / hr 2221 ft 1:23 PM CDT Rapid Fire
MesoWest OVERT1 , Overton, NE 36 °F 36 °F - - North  at  - 0.00 in / hr 2303 ft 12:00 PM CDT MADIS
MesoWest OPTIC1 , Kearney, NE 38 °F 38 °F - - North  at  - 0.00 in / hr 2119 ft 12:00 PM CDT MADIS

Show More Stations Show Fewer Stations

What do you think?

We're not finished. Please let us know what you like, what you don't like, and what you are still missing.